createdAt,value
2018-08-04T00:00:24.792Z,84.83
2018-08-04T00:02:53.440Z,85.09
2018-08-04T00:05:22.127Z,85.85
2018-08-04T00:07:50.793Z,86.12
2018-08-04T00:10:20.979Z,85.67
2018-08-04T00:12:52.497Z,86.18
2018-08-04T00:15:21.523Z,86.52
2018-08-04T00:17:50.503Z,86.80
2018-08-04T00:20:19.196Z,86.94
2018-08-04T00:22:48.123Z,87.04
2018-08-04T00:25:16.802Z,86.57
2018-08-04T00:27:45.463Z,86.03
2018-08-04T00:30:15.292Z,85.58
2018-08-04T00:32:44.507Z,84.67
2018-08-04T00:35:13.625Z,85.29
2018-08-04T00:37:42.295Z,86.15
2018-08-04T00:40:13.085Z,86.81
2018-08-04T00:42:42.369Z,87.01
2018-08-04T00:45:11.105Z,87.38
2018-08-04T00:47:39.747Z,87.23
2018-08-04T00:50:09.836Z,87.57
2018-08-04T00:52:38.472Z,87.35
2018-08-04T00:55:07.560Z,86.77
2018-08-04T00:57:36.325Z,86.50
2018-08-04T01:00:05.674Z,86.59
2018-08-04T01:02:34.326Z,86.53
2018-08-04T01:05:02.997Z,87.80
2018-08-04T01:07:31.650Z,88.61
2018-08-04T01:10:02.260Z,88.64
2018-08-04T01:12:31.037Z,88.91
2018-08-04T01:15:00.369Z,89.02
2018-08-04T01:17:29.261Z,87.94
2018-08-04T01:20:02.072Z,87.65
2018-08-04T01:22:30.715Z,88.05
2018-08-04T01:24:59.515Z,87.84
2018-08-04T01:27:28.191Z,87.82
2018-08-04T01:29:56.875Z,88.46
2018-08-04T01:32:25.515Z,88.64
2018-08-04T01:34:54.209Z,88.46
2018-08-04T01:37:22.875Z,89.09
2018-08-04T01:39:51.595Z,89.47
2018-08-04T01:42:20.268Z,89.39
2018-08-04T01:44:48.933Z,89.33
2018-08-04T01:47:17.724Z,88.65
2018-08-04T01:49:46.358Z,87.72
2018-08-04T01:52:15.023Z,87.69
2018-08-04T01:54:43.664Z,88.60
2018-08-04T01:57:12.435Z,88.96
2018-08-04T01:59:41.071Z,88.98
2018-08-04T02:02:09.742Z,88.04
2018-08-04T02:04:38.452Z,88.01
2018-08-04T02:07:07.142Z,88.42
2018-08-04T02:09:35.790Z,88.51
2018-08-04T02:12:04.498Z,88.32
2018-08-04T02:14:33.185Z,88.23
2018-08-04T02:17:01.903Z,88.58
2018-08-04T02:19:30.566Z,88.80
2018-08-04T02:21:59.268Z,89.07
2018-08-04T02:24:27.932Z,89.55
2018-08-04T02:26:56.608Z,88.38
2018-08-04T02:29:25.265Z,88.09
2018-08-04T02:31:53.933Z,88.37
2018-08-04T02:34:22.588Z,88.79
2018-08-04T02:36:51.284Z,89.11
2018-08-04T02:39:19.943Z,88.67
2018-08-04T02:41:48.632Z,89.08
2018-08-04T02:44:17.316Z,89.52
2018-08-04T02:46:46.036Z,88.79
2018-08-04T02:49:14.697Z,87.97
2018-08-04T02:51:43.397Z,87.70
2018-08-04T02:54:12.236Z,87.55
2018-08-04T02:56:40.931Z,87.72
2018-08-04T02:59:09.614Z,87.11
2018-08-04T03:01:38.331Z,87.28
2018-08-04T03:04:06.995Z,86.92
2018-08-04T03:06:35.685Z,86.98
2018-08-04T03:09:06.855Z,87.30
2018-08-04T03:11:35.544Z,87.19
2018-08-04T03:14:04.192Z,87.32
2018-08-04T03:16:32.896Z,87.64
2018-08-04T03:19:02.060Z,87.52
2018-08-04T03:21:31.691Z,87.67
2018-08-04T03:24:00.337Z,88.04
2018-08-04T03:26:29.014Z,88.57
2018-08-04T03:28:57.666Z,89.00
2018-08-04T03:31:26.354Z,89.34
2018-08-04T03:33:55.052Z,89.66
2018-08-04T03:36:23.727Z,89.52
2018-08-04T03:38:52.373Z,89.23
2018-08-04T03:41:21.043Z,89.38
2018-08-04T03:43:49.689Z,89.17
2018-08-04T03:46:18.355Z,89.15
2018-08-04T03:48:47.003Z,88.91
2018-08-04T03:51:15.693Z,88.65
2018-08-04T03:53:44.379Z,89.01
2018-08-04T03:56:13.048Z,88.91
2018-08-04T03:58:41.704Z,89.04
2018-08-04T04:01:10.327Z,88.23
2018-08-04T04:03:39.005Z,88.12
2018-08-04T04:06:07.644Z,88.11
2018-08-04T04:08:36.307Z,88.38
2018-08-04T04:11:04.945Z,88.71
2018-08-04T04:13:33.634Z,89.24
2018-08-04T04:16:02.275Z,89.17
2018-08-04T04:18:30.939Z,88.76
2018-08-04T04:20:59.628Z,88.81
2018-08-04T04:23:28.282Z,88.96
2018-08-04T04:25:56.962Z,89.22
2018-08-04T04:28:25.633Z,89.14
2018-08-04T04:30:54.372Z,89.62
2018-08-04T04:33:23.039Z,89.90
2018-08-04T04:35:51.679Z,89.82
2018-08-04T04:38:20.353Z,89.61
2018-08-04T04:40:49.003Z,89.03
2018-08-04T04:43:17.679Z,88.90
2018-08-04T04:45:46.558Z,89.01
2018-08-04T04:48:15.239Z,88.65
2018-08-04T04:50:43.885Z,88.60
2018-08-04T04:53:12.543Z,88.34
2018-08-04T04:55:41.199Z,88.36
2018-08-04T04:58:09.879Z,88.37
2018-08-04T05:00:38.547Z,88.04
2018-08-04T05:03:07.211Z,87.68
2018-08-04T05:05:35.855Z,87.34
2018-08-04T05:08:04.552Z,87.23
2018-08-04T05:10:33.213Z,86.81
2018-08-04T05:13:01.891Z,85.72
2018-08-04T05:15:30.532Z,84.52
2018-08-04T05:17:59.186Z,83.81
2018-08-04T05:20:27.844Z,83.63
2018-08-04T05:22:56.745Z,82.98
2018-08-04T05:25:25.428Z,81.82
2018-08-04T05:27:54.085Z,81.21
2018-08-04T05:30:22.752Z,79.72
2018-08-04T05:32:51.424Z,79.27
2018-08-04T05:35:20.071Z,79.12
2018-08-04T05:37:48.744Z,79.64
2018-08-04T05:40:17.396Z,80.22
2018-08-04T05:42:46.069Z,80.95
2018-08-04T05:45:14.762Z,81.51
2018-08-04T05:47:43.512Z,81.96
2018-08-04T05:50:12.159Z,82.70
2018-08-04T05:52:40.826Z,82.67
2018-08-04T05:55:09.489Z,83.00
2018-08-04T05:57:38.179Z,83.24
2018-08-04T06:00:08.252Z,83.40
2018-08-04T06:02:37.023Z,83.54
2018-08-04T06:05:06.058Z,83.86
2018-08-04T06:07:34.705Z,83.83
2018-08-04T06:10:03.451Z,83.80
2018-08-04T06:12:32.111Z,83.52
2018-08-04T06:15:00.780Z,84.07
2018-08-04T06:17:29.443Z,84.04
2018-08-04T06:19:58.103Z,83.54
2018-08-04T06:22:26.742Z,83.70
2018-08-04T06:24:55.853Z,83.65
2018-08-04T06:27:24.496Z,83.58
2018-08-04T06:29:53.152Z,83.58
2018-08-04T06:32:21.796Z,83.70
2018-08-04T06:34:50.473Z,83.89
2018-08-04T06:37:19.131Z,83.61
2018-08-04T06:39:47.795Z,83.82
2018-08-04T06:42:16.443Z,84.00
2018-08-04T06:44:45.092Z,84.25
2018-08-04T06:47:13.725Z,84.25
2018-08-04T06:49:42.375Z,84.04
2018-08-04T06:52:11.030Z,83.53
2018-08-04T06:54:39.680Z,83.15
2018-08-04T06:57:08.328Z,82.12
2018-08-04T06:59:36.986Z,81.47
2018-08-04T07:02:05.628Z,81.23
2018-08-04T07:04:34.305Z,80.48
2018-08-04T07:07:02.954Z,80.12
2018-08-04T07:09:31.597Z,79.59
2018-08-04T07:12:00.269Z,79.16
2018-08-04T07:14:28.932Z,79.25
2018-08-04T07:16:57.599Z,78.68
2018-08-04T07:19:26.254Z,78.78
2018-08-04T07:21:54.886Z,78.25
2018-08-04T07:24:23.532Z,78.54
2018-08-04T07:26:52.219Z,78.53
2018-08-04T07:29:20.866Z,78.54
2018-08-04T07:31:49.539Z,78.29
2018-08-04T07:34:18.225Z,78.02
2018-08-04T07:36:46.862Z,77.48
2018-08-04T07:39:15.540Z,77.43
2018-08-04T07:41:44.218Z,77.12
2018-08-04T07:44:12.902Z,77.97
2018-08-04T07:46:41.539Z,78.15
2018-08-04T07:49:10.327Z,77.94
2018-08-04T07:51:38.967Z,77.96
2018-08-04T07:54:07.633Z,77.12
2018-08-04T07:56:36.266Z,76.66
2018-08-04T07:59:04.923Z,75.91
2018-08-04T08:01:33.586Z,73.98
2018-08-04T08:04:02.249Z,73.72
2018-08-04T08:06:30.923Z,72.76
2018-08-04T08:08:59.657Z,72.59
2018-08-04T08:11:28.395Z,71.75
2018-08-04T08:13:57.045Z,71.64
2018-08-04T08:16:25.691Z,71.29
2018-08-04T08:18:54.324Z,70.41
2018-08-04T08:21:23.016Z,69.77
2018-08-04T08:23:51.632Z,69.37
2018-08-04T08:26:20.313Z,69.28
2018-08-04T08:28:48.969Z,67.82
2018-08-04T08:31:17.686Z,67.19
2018-08-04T08:33:46.296Z,64.37
2018-08-04T08:36:15.000Z,63.04
2018-08-04T08:38:43.620Z,63.53
2018-08-04T08:41:12.285Z,63.19
2018-08-04T08:43:40.919Z,62.73
2018-08-04T08:46:09.595Z,61.37
2018-08-04T08:48:38.219Z,60.22
2018-08-04T08:51:06.887Z,61.20
2018-08-04T08:53:35.578Z,63.19
2018-08-04T08:56:04.308Z,65.28
2018-08-04T08:58:32.940Z,66.19
2018-08-04T09:01:01.575Z,65.79
2018-08-04T09:03:30.228Z,65.54
2018-08-04T09:05:58.866Z,64.30
2018-08-04T09:08:27.524Z,63.21
2018-08-04T09:10:56.177Z,63.43
2018-08-04T09:13:24.855Z,62.14
2018-08-04T09:15:53.571Z,61.91
2018-08-04T09:18:22.238Z,60.51
2018-08-04T09:20:50.938Z,59.86
2018-08-04T09:23:19.580Z,60.04
2018-08-04T09:25:48.308Z,59.87
2018-08-04T09:28:16.954Z,58.62
2018-08-04T09:30:45.618Z,56.11
2018-08-04T09:33:20.574Z,54.35
2018-08-04T09:35:49.239Z,55.17
2018-08-04T09:38:17.899Z,55.29
2018-08-04T09:40:46.564Z,54.85
2018-08-04T09:43:15.195Z,54.94
2018-08-04T09:45:43.859Z,52.91
2018-08-04T09:48:12.535Z,52.96
2018-08-04T09:50:41.182Z,53.16
2018-08-04T09:53:09.856Z,53.07
2018-08-04T09:55:38.550Z,52.64
2018-08-04T09:58:07.193Z,52.10
2018-08-04T10:00:41.153Z,51.79
2018-08-04T10:03:09.807Z,51.47
2018-08-04T10:05:38.479Z,51.04
2018-08-04T10:08:07.140Z,50.95
2018-08-04T10:10:35.813Z,51.49
2018-08-04T10:13:04.481Z,50.08
2018-08-04T10:15:33.155Z,49.27
2018-08-04T10:18:01.851Z,48.74
2018-08-04T10:20:30.500Z,49.51
2018-08-04T10:22:59.172Z,49.83
2018-08-04T10:25:27.860Z,49.66
2018-08-04T10:27:56.530Z,49.23
2018-08-04T10:30:25.211Z,48.66
2018-08-04T10:32:53.944Z,49.54
2018-08-04T10:35:22.600Z,49.10
2018-08-04T10:37:51.275Z,47.10
2018-08-04T10:40:19.930Z,46.15
2018-08-04T10:42:48.605Z,46.21
2018-08-04T10:45:17.272Z,44.74
2018-08-04T10:47:45.936Z,45.23
2018-08-04T10:50:14.582Z,44.84
2018-08-04T10:52:43.262Z,43.83
2018-08-04T10:55:11.914Z,45.29
2018-08-04T10:57:40.702Z,45.99
2018-08-04T11:00:10.463Z,45.80
2018-08-04T11:02:39.278Z,45.97
2018-08-04T11:05:08.515Z,46.36
2018-08-04T11:07:37.306Z,46.51
2018-08-04T11:10:06.640Z,45.83
2018-08-04T11:12:35.493Z,44.75
2018-08-04T11:15:04.189Z,44.72
2018-08-04T11:17:32.872Z,44.91
2018-08-04T11:20:01.496Z,45.11
2018-08-04T11:22:30.171Z,45.65
2018-08-04T11:24:58.795Z,44.97
2018-08-04T11:27:27.469Z,44.99
2018-08-04T11:29:56.108Z,44.41
2018-08-04T11:32:24.746Z,43.15
2018-08-04T11:34:53.376Z,43.33
2018-08-04T11:37:22.066Z,42.23
2018-08-04T11:39:50.699Z,43.03
2018-08-04T11:42:19.366Z,43.62
2018-08-04T11:44:47.989Z,41.73
2018-08-04T11:47:16.671Z,42.53
2018-08-04T11:49:46.131Z,41.27
2018-08-04T11:52:14.771Z,41.22
2018-08-04T11:54:43.417Z,41.62
2018-08-04T11:57:12.084Z,41.25
2018-08-04T11:59:40.898Z,41.62
2018-08-04T12:02:10.213Z,41.23
2018-08-04T12:04:38.847Z,42.28
2018-08-04T12:07:07.523Z,42.00
2018-08-04T12:09:36.158Z,43.53
2018-08-04T12:12:04.867Z,44.72
2018-08-04T12:14:33.502Z,46.33
2018-08-04T12:17:02.195Z,47.02
2018-08-04T12:19:30.860Z,45.13
2018-08-04T12:21:59.530Z,45.87
2018-08-04T12:24:28.164Z,46.82
2018-08-04T12:26:56.987Z,45.41
2018-08-04T12:29:25.650Z,44.05
2018-08-04T12:31:54.289Z,43.93
2018-08-04T12:34:22.966Z,43.59
2018-08-04T12:36:51.622Z,42.05
2018-08-04T12:39:20.290Z,42.26
2018-08-04T12:41:48.959Z,42.00
2018-08-04T12:44:17.627Z,41.69
2018-08-04T12:46:46.277Z,41.34
2018-08-04T12:49:14.959Z,41.81
2018-08-04T12:51:43.628Z,43.18
2018-08-04T12:54:12.301Z,44.18
2018-08-04T12:56:40.962Z,45.47
2018-08-04T12:59:09.617Z,44.73
2018-08-04T13:01:38.278Z,44.67
2018-08-04T13:04:07.339Z,43.58
2018-08-04T13:06:35.984Z,41.53
2018-08-04T13:09:06.482Z,41.14
2018-08-04T13:11:35.225Z,42.17
2018-08-04T13:14:03.989Z,43.24
2018-08-04T13:16:32.645Z,43.88
2018-08-04T13:19:01.328Z,43.35
2018-08-04T13:21:30.313Z,43.49
2018-08-04T13:23:58.956Z,42.09
2018-08-04T13:26:27.683Z,39.78
2018-08-04T13:28:56.360Z,39.65
2018-08-04T13:31:25.019Z,41.11
2018-08-04T13:33:53.696Z,43.49
2018-08-04T13:36:22.358Z,44.54
2018-08-04T13:38:51.066Z,46.37
2018-08-04T13:41:19.739Z,45.81
2018-08-04T13:43:48.403Z,44.42
2018-08-04T13:46:17.078Z,43.97
2018-08-04T13:48:45.751Z,44.09
2018-08-04T13:51:14.400Z,43.67
2018-08-04T13:53:43.190Z,43.33
2018-08-04T13:56:11.863Z,43.46
2018-08-04T13:58:40.573Z,43.34
2018-08-04T14:01:09.253Z,43.38
2018-08-04T14:03:37.926Z,42.90
2018-08-04T14:06:07.018Z,43.37
2018-08-04T14:08:35.709Z,44.41
2018-08-04T14:11:04.378Z,45.64
2018-08-04T14:13:33.062Z,47.42
2018-08-04T14:16:01.725Z,46.95
2018-08-04T14:18:30.466Z,45.49
2018-08-04T14:20:59.174Z,45.11
2018-08-04T14:23:27.871Z,44.28
2018-08-04T14:25:56.529Z,44.46
2018-08-04T14:28:25.228Z,44.98
2018-08-04T14:30:53.871Z,46.59
2018-08-04T14:33:22.552Z,46.71
2018-08-04T14:35:51.213Z,47.33
2018-08-04T14:38:19.897Z,48.13
2018-08-04T14:40:48.551Z,49.33
2018-08-04T14:43:17.187Z,49.71
2018-08-04T14:45:45.856Z,49.62
2018-08-04T14:48:14.494Z,49.96
2018-08-04T14:50:43.168Z,50.51
2018-08-04T14:53:11.834Z,51.71
2018-08-04T14:55:40.497Z,51.97
2018-08-04T14:58:09.149Z,52.32
2018-08-04T15:00:37.837Z,52.30
2018-08-04T15:03:06.481Z,53.81
2018-08-04T15:05:35.161Z,54.36
2018-08-04T15:08:03.820Z,54.08
2018-08-04T15:10:32.480Z,55.48
2018-08-04T15:13:01.183Z,55.14
2018-08-04T15:15:29.844Z,54.81
2018-08-04T15:17:58.564Z,55.80
2018-08-04T15:20:27.299Z,55.54
2018-08-04T15:22:56.047Z,55.81
2018-08-04T15:25:24.722Z,55.71
2018-08-04T15:27:53.364Z,56.29
2018-08-04T15:30:22.008Z,56.81
2018-08-04T15:32:50.638Z,56.88
2018-08-04T15:35:19.472Z,57.09
2018-08-04T15:37:48.106Z,57.84
2018-08-04T15:40:16.760Z,57.82
2018-08-04T15:42:45.386Z,57.21
2018-08-04T15:45:14.042Z,56.77
2018-08-04T15:47:42.671Z,55.31
2018-08-04T15:50:11.341Z,55.22
2018-08-04T15:52:39.974Z,55.32
2018-08-04T15:55:08.671Z,55.98
2018-08-04T15:57:37.352Z,56.03
2018-08-04T16:00:06.947Z,56.80
2018-08-04T16:02:35.559Z,57.14
2018-08-04T16:05:04.292Z,57.31
2018-08-04T16:07:32.964Z,58.11
2018-08-04T16:10:01.626Z,56.13
2018-08-04T16:12:30.395Z,55.37
2018-08-04T16:14:59.082Z,55.04
2018-08-04T16:17:27.726Z,54.65
2018-08-04T16:19:56.446Z,55.36
2018-08-04T16:22:25.084Z,54.74
2018-08-04T16:24:53.739Z,54.83
2018-08-04T16:27:22.381Z,54.39
2018-08-04T16:29:51.044Z,54.91
2018-08-04T16:32:19.698Z,54.38
2018-08-04T16:34:48.364Z,54.35
2018-08-04T16:37:16.995Z,54.77
2018-08-04T16:39:45.649Z,54.06
2018-08-04T16:42:14.282Z,53.79
2018-08-04T16:44:42.955Z,54.50
2018-08-04T16:47:11.594Z,54.16
2018-08-04T16:49:40.251Z,54.17
2018-08-04T16:52:08.933Z,54.03
2018-08-04T16:54:37.568Z,53.52
2018-08-04T16:57:06.237Z,53.60
2018-08-04T16:59:34.960Z,54.07
2018-08-04T17:02:03.579Z,53.64
2018-08-04T17:04:32.211Z,54.33
2018-08-04T17:07:00.897Z,54.48
2018-08-04T17:09:29.546Z,54.54
2018-08-04T17:11:58.223Z,53.13
2018-08-04T17:14:26.875Z,51.92
2018-08-04T17:16:55.544Z,51.28
2018-08-04T17:19:24.182Z,51.58
2018-08-04T17:21:52.973Z,51.52
2018-08-04T17:24:21.608Z,51.51
2018-08-04T17:26:50.794Z,52.00
2018-08-04T17:29:19.562Z,51.44
2018-08-04T17:31:48.247Z,51.71
2018-08-04T17:34:16.872Z,51.94
2018-08-04T17:36:45.511Z,52.23
2018-08-04T17:39:14.135Z,52.37
2018-08-04T17:41:42.764Z,52.48
2018-08-04T17:44:11.420Z,52.68
2018-08-04T17:46:40.060Z,53.31
2018-08-04T17:49:08.713Z,53.77
2018-08-04T17:51:37.388Z,54.08
2018-08-04T17:54:06.099Z,54.21
2018-08-04T17:56:34.748Z,54.39
2018-08-04T17:59:03.399Z,54.72
2018-08-04T18:01:32.075Z,55.19
2018-08-04T18:04:00.785Z,55.28
2018-08-04T18:06:29.405Z,55.11
2018-08-04T18:08:58.051Z,55.30
2018-08-04T18:11:26.726Z,55.66
2018-08-04T18:13:55.390Z,55.51
2018-08-04T18:16:24.043Z,55.70
2018-08-04T18:18:52.696Z,55.78
2018-08-04T18:21:21.400Z,55.80
2018-08-04T18:23:50.062Z,55.98
2018-08-04T18:26:18.718Z,55.76
2018-08-04T18:28:47.376Z,55.75
2018-08-04T18:31:16.027Z,56.38
2018-08-04T18:33:44.658Z,56.48
2018-08-04T18:36:13.323Z,56.51
2018-08-04T18:38:41.955Z,57.16
2018-08-04T18:41:10.635Z,57.15
2018-08-04T18:43:39.258Z,57.72
2018-08-04T18:46:07.934Z,58.18
2018-08-04T18:48:36.577Z,58.70
2018-08-04T18:51:05.252Z,59.35
2018-08-04T18:53:33.901Z,59.38
2018-08-04T18:56:02.620Z,60.59
2018-08-04T18:58:31.286Z,60.85
2018-08-04T19:00:59.929Z,60.90
2018-08-04T19:03:28.604Z,60.95
2018-08-04T19:05:57.264Z,61.51
2018-08-04T19:08:25.934Z,61.74
2018-08-04T19:10:54.601Z,61.79
2018-08-04T19:13:23.278Z,61.75
2018-08-04T19:15:51.962Z,62.46
2018-08-04T19:18:20.617Z,62.42
2018-08-04T19:20:49.317Z,63.17
2018-08-04T19:23:17.984Z,64.16
2018-08-04T19:25:46.616Z,64.80
2018-08-04T19:28:15.519Z,64.46
2018-08-04T19:30:44.175Z,64.51
2018-08-04T19:33:12.859Z,65.40
2018-08-04T19:35:41.499Z,65.36
2018-08-04T19:38:10.150Z,65.78
2018-08-04T19:40:38.794Z,66.22
2018-08-04T19:43:07.448Z,66.55
2018-08-04T19:45:36.079Z,67.04
2018-08-04T19:48:04.759Z,67.87
2018-08-04T19:50:33.431Z,68.89
2018-08-04T19:53:02.104Z,71.29
2018-08-04T19:55:30.781Z,73.47
2018-08-04T19:57:59.410Z,72.74
2018-08-04T20:00:28.052Z,73.64
2018-08-04T20:02:56.706Z,72.69
2018-08-04T20:07:52.931Z,71.36
2018-08-04T20:10:21.556Z,71.29
2018-08-04T20:12:50.238Z,70.80
2018-08-04T20:15:18.899Z,71.06
2018-08-04T20:17:47.784Z,71.29
2018-08-04T20:20:16.430Z,70.95
2018-08-04T20:22:45.088Z,71.50
2018-08-04T20:25:13.719Z,72.32
2018-08-04T20:27:42.379Z,72.58
2018-08-04T20:30:11.016Z,72.97
2018-08-04T20:32:39.670Z,72.20
2018-08-04T20:35:08.324Z,71.86
2018-08-04T20:37:36.994Z,71.93
2018-08-04T20:40:05.941Z,72.63
2018-08-04T20:42:34.620Z,72.31
2018-08-04T20:45:03.327Z,73.17
2018-08-04T20:47:32.079Z,73.48
2018-08-04T20:50:00.702Z,73.60
2018-08-04T20:52:29.404Z,73.67
2018-08-04T20:54:58.040Z,73.93
2018-08-04T20:57:26.714Z,74.29
2018-08-04T20:59:55.370Z,74.84
2018-08-04T21:02:24.008Z,74.70
2018-08-04T21:04:52.706Z,74.47
2018-08-04T21:07:21.380Z,75.23
2018-08-04T21:09:50.315Z,76.19
2018-08-04T21:12:18.982Z,76.37
2018-08-04T21:14:47.668Z,76.00
2018-08-04T21:17:16.325Z,75.73
2018-08-04T21:19:44.984Z,75.74
2018-08-04T21:22:13.661Z,75.44
2018-08-04T21:24:42.353Z,75.80
2018-08-04T21:27:10.974Z,75.85
2018-08-04T21:29:39.638Z,76.21
2018-08-04T21:32:08.317Z,76.59
2018-08-04T21:34:36.971Z,76.55
2018-08-04T21:37:05.796Z,76.61
2018-08-04T21:39:34.497Z,76.62
2018-08-04T21:42:03.168Z,76.78
2018-08-04T21:44:38.473Z,76.63
2018-08-04T21:47:07.123Z,76.29
2018-08-04T21:49:35.793Z,76.22
2018-08-04T21:52:04.508Z,76.51
2018-08-04T21:54:33.187Z,76.41
2018-08-04T21:57:01.833Z,76.16
2018-08-04T21:59:30.515Z,76.15
2018-08-04T22:01:59.215Z,75.88
2018-08-04T22:04:27.855Z,75.98
2018-08-04T22:08:06.608Z,75.53
2018-08-04T22:10:35.367Z,74.25
2018-08-04T22:13:04.200Z,73.45
2018-08-04T22:15:32.865Z,72.67
2018-08-04T22:18:01.609Z,72.24
2018-08-04T22:20:30.771Z,71.52
2018-08-04T22:22:59.428Z,71.90
2018-08-04T22:25:29.178Z,71.95
2018-08-04T22:27:58.599Z,71.74
2018-08-04T22:30:27.535Z,71.85
2018-08-04T22:32:56.199Z,71.98
2018-08-04T22:35:24.898Z,72.13
2018-08-04T22:37:53.572Z,72.43
2018-08-04T22:40:22.660Z,72.63
2018-08-04T22:42:51.338Z,72.76
2018-08-04T22:46:24.291Z,73.17
2018-08-04T22:48:54.258Z,73.34
2018-08-04T22:51:26.535Z,73.32
2018-08-04T22:53:55.271Z,73.11
2018-08-04T22:56:24.008Z,73.17
2018-08-04T22:58:52.679Z,73.24
2018-08-04T23:01:21.387Z,73.24
2018-08-04T23:03:50.048Z,73.52
2018-08-04T23:06:18.724Z,73.55
2018-08-04T23:08:47.356Z,73.82
2018-08-04T23:11:16.022Z,73.86
2018-08-04T23:13:44.678Z,74.04
2018-08-04T23:16:13.354Z,74.29
2018-08-04T23:18:42.012Z,74.40
2018-08-04T23:21:10.728Z,74.88
2018-08-04T23:23:39.376Z,74.93
2018-08-04T23:26:08.072Z,75.43
2018-08-04T23:28:36.711Z,75.61
2018-08-04T23:31:05.400Z,76.12
2018-08-04T23:33:34.034Z,76.51
2018-08-04T23:36:02.712Z,76.83
2018-08-04T23:38:31.359Z,77.53
2018-08-04T23:41:00.018Z,77.70
2018-08-04T23:43:28.661Z,78.27
2018-08-04T23:45:57.325Z,78.45
2018-08-04T23:48:25.970Z,78.93
2018-08-04T23:50:54.655Z,79.58
2018-08-04T23:53:23.339Z,79.68
2018-08-04T23:55:52.003Z,80.04
2018-08-04T23:58:20.653Z,80.67
